createdAt,value
2023-05-14T00:00:54.711Z,15.60
2023-05-14T00:03:22.510Z,15.50
2023-05-14T00:05:50.778Z,15.70
2023-05-14T00:08:19.875Z,15.80
2023-05-14T00:10:47.623Z,15.80
2023-05-14T00:13:15.528Z,15.60
2023-05-14T00:15:43.347Z,15.40
2023-05-14T00:18:12.118Z,15.50
2023-05-14T00:20:39.943Z,15.60
2023-05-14T00:23:07.718Z,15.30
2023-05-14T00:25:37.161Z,15.40
2023-05-14T00:28:05.192Z,15.50
2023-05-14T00:30:33.081Z,15.70
2023-05-14T00:33:00.998Z,15.30
2023-05-14T00:35:28.866Z,15.00
2023-05-14T00:37:56.656Z,15.50
2023-05-14T00:40:27.359Z,15.00
2023-05-14T00:42:57.612Z,15.20
2023-05-14T00:45:25.602Z,14.80
2023-05-14T00:47:54.396Z,14.90
2023-05-14T00:50:22.557Z,15.10
2023-05-14T00:52:50.752Z,15.00
2023-05-14T00:55:20.618Z,14.70
2023-05-14T00:57:48.350Z,14.80
2023-05-14T01:00:18.604Z,14.90
2023-05-14T01:02:46.507Z,15.20
2023-05-14T01:05:14.346Z,14.90
2023-05-14T01:07:50.340Z,15.10
2023-05-14T01:10:22.262Z,14.90
2023-05-14T01:13:01.291Z,14.50
2023-05-14T01:15:34.205Z,14.80
2023-05-14T01:18:09.650Z,14.90
2023-05-14T01:20:37.964Z,14.80
2023-05-14T01:23:07.064Z,14.80
2023-05-14T01:25:35.350Z,14.80
2023-05-14T01:28:10.392Z,14.90
2023-05-14T01:30:41.395Z,14.70
2023-05-14T01:33:13.044Z,14.60
2023-05-14T01:35:41.445Z,14.50
2023-05-14T01:38:13.245Z,14.70
2023-05-14T01:40:41.849Z,14.60
2023-05-14T01:43:10.122Z,14.50
2023-05-14T01:45:38.091Z,14.60
2023-05-14T01:48:06.647Z,14.70
2023-05-14T01:50:34.467Z,14.70
2023-05-14T01:53:02.288Z,14.70
2023-05-14T01:55:31.389Z,14.70
2023-05-14T01:57:59.165Z,14.60
2023-05-14T02:00:27.260Z,14.40
2023-05-14T02:02:55.037Z,14.80
2023-05-14T02:05:22.909Z,14.70
2023-05-14T02:07:51.278Z,14.60
2023-05-14T02:10:19.075Z,14.50
2023-05-14T02:12:48.152Z,14.10
2023-05-14T02:15:15.843Z,14.70
2023-05-14T02:17:43.639Z,14.60
2023-05-14T02:20:12.807Z,14.70
2023-05-14T02:22:42.141Z,14.50
2023-05-14T02:25:11.055Z,14.90
2023-05-14T02:27:38.770Z,14.70
2023-05-14T02:30:09.689Z,14.50
2023-05-14T02:32:37.969Z,14.70
2023-05-14T02:35:06.698Z,14.70
2023-05-14T02:37:34.609Z,14.30
2023-05-14T02:40:02.537Z,14.40
2023-05-14T02:42:30.360Z,14.30
2023-05-14T02:44:58.064Z,14.40
2023-05-14T02:47:27.202Z,14.30
2023-05-14T02:49:55.015Z,14.20
2023-05-14T02:52:22.896Z,14.40
2023-05-14T02:54:50.617Z,14.20
2023-05-14T02:57:18.304Z,14.40
2023-05-14T02:59:46.029Z,14.20
2023-05-14T03:02:14.305Z,14.00
2023-05-14T03:04:44.047Z,13.90
2023-05-14T03:07:11.853Z,13.50
2023-05-14T03:09:39.563Z,14.10
2023-05-14T03:12:08.735Z,13.90
2023-05-14T03:14:36.534Z,13.70
2023-05-14T03:17:04.463Z,13.80
2023-05-14T03:19:32.341Z,14.00
2023-05-14T03:22:01.531Z,14.00
2023-05-14T03:24:29.320Z,13.70
2023-05-14T03:26:57.018Z,13.20
2023-05-14T03:29:24.708Z,13.10
2023-05-14T03:31:52.942Z,13.20
2023-05-14T03:34:20.779Z,13.00
2023-05-14T03:36:48.516Z,13.60
2023-05-14T03:39:19.626Z,13.50
2023-05-14T03:41:47.400Z,13.20
2023-05-14T03:44:15.082Z,13.40
2023-05-14T03:46:42.799Z,13.50
2023-05-14T03:49:10.676Z,13.20
2023-05-14T03:51:38.595Z,13.40
2023-05-14T03:54:06.637Z,13.30
2023-05-14T03:56:35.704Z,13.10
2023-05-14T03:59:03.419Z,13.00
2023-05-14T04:01:31.168Z,13.10
2023-05-14T04:03:59.021Z,13.00
2023-05-14T04:06:26.804Z,13.40
2023-05-14T04:08:54.594Z,12.60
2023-05-14T04:11:23.502Z,13.20
2023-05-14T04:13:52.559Z,13.10
2023-05-14T04:16:20.304Z,13.50
2023-05-14T04:18:48.105Z,13.20
2023-05-14T04:21:15.838Z,13.00
2023-05-14T04:23:43.550Z,13.30
2023-05-14T04:26:11.276Z,13.20
2023-05-14T04:28:39.037Z,13.40
2023-05-14T04:31:08.193Z,13.60
2023-05-14T04:33:35.968Z,13.70
2023-05-14T04:36:05.041Z,13.60
2023-05-14T04:38:32.796Z,14.10
2023-05-14T04:41:00.496Z,14.00
2023-05-14T04:43:28.230Z,13.80
2023-05-14T04:45:56.085Z,13.80
2023-05-14T04:48:25.294Z,14.20
2023-05-14T04:50:53.154Z,13.70
2023-05-14T04:53:20.951Z,13.70
2023-05-14T04:55:48.641Z,14.20
2023-05-14T04:58:16.380Z,14.10
2023-05-14T05:00:45.312Z,14.30
2023-05-14T05:03:13.187Z,14.60
2023-05-14T05:05:42.499Z,14.10
2023-05-14T05:08:11.260Z,15.00
2023-05-14T05:10:39.021Z,15.10
2023-05-14T05:13:06.777Z,15.10
2023-05-14T05:15:34.572Z,15.30
2023-05-14T05:18:02.392Z,15.00
2023-05-14T05:20:30.185Z,14.80
2023-05-14T05:22:59.464Z,15.60
2023-05-14T05:25:27.719Z,15.80
2023-05-14T05:27:55.501Z,15.70
2023-05-14T05:30:23.476Z,15.80
2023-05-14T05:32:51.706Z,15.90
2023-05-14T05:35:19.626Z,16.30
2023-05-14T05:37:47.354Z,16.00
2023-05-14T05:40:16.908Z,16.30
2023-05-14T05:42:44.590Z,16.10
2023-05-14T05:45:12.485Z,16.20
2023-05-14T05:47:40.258Z,16.30
2023-05-14T05:50:09.609Z,16.30
2023-05-14T05:52:37.427Z,16.30
2023-05-14T05:55:05.861Z,16.40
2023-05-14T05:57:34.949Z,16.40
2023-05-14T06:00:09.855Z,16.00
2023-05-14T06:02:37.806Z,16.40
2023-05-14T06:05:06.879Z,16.40
2023-05-14T06:07:34.668Z,16.30
2023-05-14T06:10:02.684Z,16.40
2023-05-14T06:12:30.473Z,16.40
2023-05-14T06:14:59.670Z,16.20
2023-05-14T06:17:27.834Z,16.60
2023-05-14T06:19:55.667Z,16.70
2023-05-14T06:22:23.383Z,16.80
2023-05-14T06:24:51.093Z,17.30
2023-05-14T06:27:18.827Z,17.10
2023-05-14T06:29:46.577Z,17.20
2023-05-14T06:32:15.939Z,17.60
2023-05-14T06:34:43.927Z,18.60
2023-05-14T06:37:12.286Z,19.20
2023-05-14T06:39:44.028Z,20.40
2023-05-14T06:42:11.813Z,23.30
2023-05-14T06:44:39.531Z,25.40
2023-05-14T06:47:08.378Z,27.20
2023-05-14T06:49:37.745Z,27.90
2023-05-14T06:52:06.217Z,28.40
2023-05-14T06:54:34.164Z,28.90
2023-05-14T06:57:01.916Z,29.00
2023-05-14T06:59:29.693Z,29.30
2023-05-14T07:01:57.591Z,29.50
2023-05-14T07:04:25.361Z,29.60
2023-05-14T07:06:54.493Z,29.80
2023-05-14T07:09:22.441Z,30.10
2023-05-14T07:11:50.370Z,30.40
2023-05-14T07:14:18.165Z,30.60
2023-05-14T07:16:46.990Z,30.40
2023-05-14T07:19:15.041Z,30.70
2023-05-14T07:21:42.885Z,30.40
2023-05-14T07:24:11.961Z,30.70
2023-05-14T07:26:40.150Z,31.30
2023-05-14T07:29:08.374Z,31.30
2023-05-14T07:31:36.284Z,31.00
2023-05-14T07:34:04.182Z,31.00
2023-05-14T07:36:31.979Z,31.20
2023-05-14T07:38:59.766Z,31.30
2023-05-14T07:41:28.885Z,31.30
2023-05-14T07:43:56.606Z,31.20
2023-05-14T07:46:25.641Z,31.40
2023-05-14T07:48:53.358Z,31.50
2023-05-14T07:51:21.120Z,31.60
2023-05-14T07:53:48.915Z,31.60
2023-05-14T07:56:16.621Z,30.40
2023-05-14T07:58:46.063Z,27.40
2023-05-14T08:01:16.376Z,25.70
2023-05-14T08:03:45.006Z,26.30
2023-05-14T08:06:14.178Z,28.00
2023-05-14T08:08:42.878Z,29.40
2023-05-14T08:11:11.971Z,30.20
2023-05-14T08:13:41.838Z,30.40
2023-05-14T08:16:12.634Z,30.70
2023-05-14T08:18:42.388Z,30.40
2023-05-14T08:21:12.258Z,30.80
2023-05-14T08:23:41.925Z,31.00
2023-05-14T08:26:11.643Z,31.30
2023-05-14T08:28:42.160Z,31.00
2023-05-14T08:31:14.995Z,30.90
2023-05-14T08:33:44.885Z,30.90
2023-05-14T08:36:14.555Z,31.40
2023-05-14T08:38:44.744Z,31.40
2023-05-14T08:41:17.029Z,30.30
2023-05-14T08:43:54.157Z,28.60
2023-05-14T08:46:26.001Z,27.50
2023-05-14T08:48:59.861Z,26.00
2023-05-14T08:51:29.017Z,24.90
2023-05-14T08:54:01.200Z,24.40
2023-05-14T08:56:33.691Z,23.80
2023-05-14T08:59:01.670Z,23.60
2023-05-14T09:01:32.054Z,23.20
2023-05-14T09:04:01.372Z,23.00
2023-05-14T09:06:30.182Z,22.50
2023-05-14T09:08:57.969Z,22.50
2023-05-14T09:11:25.698Z,22.30
2023-05-14T09:13:53.566Z,22.20
2023-05-14T09:16:22.158Z,21.90
2023-05-14T09:18:52.643Z,21.80
2023-05-14T09:21:20.921Z,21.50
2023-05-14T09:23:49.725Z,21.00
2023-05-14T09:26:19.248Z,21.30
2023-05-14T09:28:47.313Z,20.90
2023-05-14T09:31:15.137Z,21.40
2023-05-14T09:33:42.954Z,21.40
2023-05-14T09:36:12.057Z,21.70
2023-05-14T09:38:39.820Z,21.50
2023-05-14T09:41:07.609Z,22.00
2023-05-14T09:43:35.336Z,22.40
2023-05-14T09:46:03.093Z,22.80
2023-05-14T09:48:30.938Z,22.90
2023-05-14T09:50:58.655Z,23.20
2023-05-14T09:53:27.901Z,23.30
2023-05-14T09:55:55.749Z,23.10
2023-05-14T09:58:23.547Z,23.10
2023-05-14T10:00:52.748Z,22.90
2023-05-14T10:03:23.771Z,22.70
2023-05-14T10:05:52.065Z,22.50
2023-05-14T10:08:23.211Z,22.60
2023-05-14T10:10:54.587Z,22.40
2023-05-14T10:13:25.196Z,22.20
2023-05-14T10:16:01.186Z,22.10
2023-05-14T10:18:32.695Z,22.10
2023-05-14T10:21:06.174Z,22.20
2023-05-14T10:23:34.601Z,22.10
2023-05-14T10:26:04.230Z,22.20
2023-05-14T10:28:33.190Z,22.10
2023-05-14T10:31:01.320Z,21.90
2023-05-14T10:33:29.198Z,21.90
2023-05-14T10:36:00.559Z,21.90
2023-05-14T10:38:29.323Z,21.90
2023-05-14T10:41:05.924Z,21.60
2023-05-14T10:43:38.374Z,21.40
2023-05-14T10:46:06.866Z,21.50
2023-05-14T10:48:35.193Z,21.70
2023-05-14T10:51:03.213Z,21.60
2023-05-14T10:53:35.521Z,21.70
2023-05-14T10:56:07.097Z,22.00
2023-05-14T10:58:38.028Z,22.00
2023-05-14T11:01:07.663Z,22.00
2023-05-14T11:03:42.727Z,22.40
2023-05-14T11:06:13.030Z,22.70
2023-05-14T11:08:41.654Z,23.00
2023-05-14T11:11:11.586Z,23.30
2023-05-14T11:13:39.592Z,23.60
2023-05-14T11:18:38.678Z,24.10
2023-05-14T11:21:06.835Z,24.30
2023-05-14T11:23:34.769Z,24.40
2023-05-14T11:26:02.906Z,24.40
2023-05-14T11:28:31.992Z,24.60
2023-05-14T11:31:00.097Z,24.30
2023-05-14T11:33:29.610Z,23.90
2023-05-14T11:35:57.419Z,23.80
2023-05-14T11:38:25.345Z,24.10
2023-05-14T11:40:54.160Z,24.10
2023-05-14T11:43:23.737Z,24.40
2023-05-14T11:45:54.454Z,24.40
2023-05-14T11:48:23.185Z,24.40
2023-05-14T11:50:52.390Z,24.60
2023-05-14T11:53:20.862Z,24.30
2023-05-14T11:55:49.148Z,23.80
2023-05-14T11:58:18.854Z,24.10
2023-05-14T12:00:47.361Z,24.10
2023-05-14T12:03:16.801Z,24.20
2023-05-14T12:05:56.591Z,24.50
2023-05-14T12:08:27.089Z,24.80
2023-05-14T12:10:54.927Z,25.10
2023-05-14T12:13:22.961Z,25.40
2023-05-14T12:15:56.203Z,25.40
2023-05-14T12:18:26.355Z,25.80
2023-05-14T12:20:54.267Z,26.00
2023-05-14T12:23:26.570Z,26.00
2023-05-14T12:25:54.401Z,26.20
2023-05-14T12:28:24.350Z,26.20
2023-05-14T12:30:57.992Z,25.90
2023-05-14T12:33:28.438Z,26.00
2023-05-14T12:35:58.936Z,25.80
2023-05-14T12:38:28.431Z,25.30
2023-05-14T12:40:56.195Z,25.20
2023-05-14T12:43:23.944Z,25.20
2023-05-14T12:45:51.661Z,25.40
2023-05-14T12:48:19.421Z,25.40
2023-05-14T12:50:48.705Z,24.90
2023-05-14T12:53:16.724Z,24.90
2023-05-14T12:55:44.496Z,24.90
2023-05-14T12:58:12.217Z,25.10
2023-05-14T13:00:39.965Z,24.90
2023-05-14T13:03:07.740Z,24.70
2023-05-14T13:05:35.700Z,24.50
2023-05-14T13:08:04.868Z,24.50
2023-05-14T13:10:32.623Z,24.10
2023-05-14T13:13:01.987Z,23.70
2023-05-14T13:15:31.477Z,23.50
2023-05-14T13:17:59.276Z,23.40
2023-05-14T13:20:27.423Z,23.30
2023-05-14T13:22:55.350Z,23.20
2023-05-14T13:25:24.844Z,23.10
2023-05-14T13:27:52.766Z,23.00
2023-05-14T13:30:20.850Z,22.80
2023-05-14T13:32:48.687Z,23.00
2023-05-14T13:35:16.488Z,22.90
2023-05-14T13:37:44.710Z,23.30
2023-05-14T13:40:13.288Z,23.50
2023-05-14T13:42:42.398Z,23.30
2023-05-14T13:45:11.675Z,23.10
2023-05-14T13:47:40.277Z,23.10
2023-05-14T13:50:09.026Z,23.10
2023-05-14T13:52:37.733Z,22.90
2023-05-14T13:55:06.325Z,22.80
2023-05-14T13:57:34.069Z,22.30
2023-05-14T14:00:03.215Z,22.20
2023-05-14T14:02:31.854Z,22.40
2023-05-14T14:05:00.607Z,22.60
2023-05-14T14:07:28.384Z,22.90
2023-05-14T14:09:56.130Z,23.30
2023-05-14T14:12:23.909Z,23.30
2023-05-14T14:14:52.195Z,23.20
2023-05-14T14:17:21.298Z,23.40
2023-05-14T14:19:48.972Z,23.60
2023-05-14T14:22:17.288Z,23.70
2023-05-14T14:24:45.074Z,23.80
2023-05-14T14:27:12.946Z,23.80
2023-05-14T14:29:40.685Z,23.60
2023-05-14T14:32:08.871Z,23.50
2023-05-14T14:34:38.027Z,23.50
2023-05-14T14:37:06.149Z,23.40
2023-05-14T14:39:33.858Z,23.30
2023-05-14T14:42:01.774Z,23.60
2023-05-14T14:44:29.497Z,23.70
2023-05-14T14:46:57.209Z,23.80
2023-05-14T14:49:24.986Z,23.80
2023-05-14T14:51:54.339Z,23.60
2023-05-14T14:54:22.070Z,23.50
2023-05-14T14:56:52.278Z,23.40
2023-05-14T14:59:20.016Z,23.40
2023-05-14T15:01:47.789Z,23.40
2023-05-14T15:04:15.604Z,23.40
2023-05-14T15:06:43.367Z,23.40
2023-05-14T15:09:12.457Z,23.30
2023-05-14T15:11:40.262Z,23.20
2023-05-14T15:14:08.136Z,23.20
2023-05-14T15:16:36.003Z,23.10
2023-05-14T15:19:03.869Z,23.30
2023-05-14T15:21:31.994Z,23.30
2023-05-14T15:23:59.701Z,23.40
2023-05-14T15:26:28.779Z,23.50
2023-05-14T15:28:57.781Z,23.50
2023-05-14T15:31:25.931Z,23.40
2023-05-14T15:33:55.921Z,23.50
2023-05-14T15:36:23.685Z,23.50
2023-05-14T15:38:51.420Z,23.60
2023-05-14T15:41:19.136Z,23.50
2023-05-14T15:43:48.186Z,23.60
2023-05-14T15:46:15.953Z,23.60
2023-05-14T15:48:43.700Z,23.60
2023-05-14T15:51:11.437Z,23.50
2023-05-14T15:53:39.235Z,23.40
2023-05-14T15:56:07.960Z,23.50
2023-05-14T15:58:35.694Z,23.40
2023-05-14T16:01:04.833Z,23.40
2023-05-14T16:03:32.682Z,23.30
2023-05-14T16:06:00.719Z,23.30
2023-05-14T16:08:28.486Z,23.20
2023-05-14T16:10:56.178Z,23.20
2023-05-14T16:13:23.958Z,23.20
2023-05-14T16:15:52.021Z,23.30
2023-05-14T16:18:22.018Z,23.30
2023-05-14T16:20:49.805Z,23.20
2023-05-14T16:23:17.887Z,23.20
2023-05-14T16:25:45.645Z,23.10
2023-05-14T16:28:13.916Z,23.00
2023-05-14T16:30:41.650Z,23.00
2023-05-14T16:33:09.369Z,22.80
2023-05-14T16:35:39.240Z,22.60
2023-05-14T16:38:06.924Z,22.50
2023-05-14T16:40:34.752Z,22.30
2023-05-14T16:43:02.469Z,22.20
2023-05-14T16:45:32.560Z,22.00
2023-05-14T16:48:01.095Z,22.00
2023-05-14T16:50:28.884Z,21.90
2023-05-14T16:52:57.989Z,21.90
2023-05-14T16:55:26.440Z,21.80
2023-05-14T16:57:54.260Z,21.70
2023-05-14T17:00:22.124Z,21.60
2023-05-14T17:02:52.059Z,21.60
2023-05-14T17:05:19.860Z,21.40
2023-05-14T17:07:47.785Z,21.70
2023-05-14T17:10:16.958Z,21.60
2023-05-14T17:12:44.833Z,21.50
2023-05-14T17:15:12.989Z,21.50
2023-05-14T17:17:40.820Z,21.50
2023-05-14T17:20:09.506Z,21.50
2023-05-14T17:22:37.407Z,21.60
2023-05-14T17:25:06.126Z,21.40
2023-05-14T17:27:36.075Z,21.40
2023-05-14T17:30:04.992Z,21.40
2023-05-14T17:32:33.002Z,21.40
2023-05-14T17:35:00.761Z,21.30
2023-05-14T17:37:28.599Z,21.30
2023-05-14T17:39:56.330Z,20.90
2023-05-14T17:42:24.037Z,21.10
2023-05-14T17:44:53.700Z,21.00
2023-05-14T17:47:22.126Z,20.90
2023-05-14T17:49:50.805Z,21.00
2023-05-14T17:52:19.013Z,20.90
2023-05-14T17:54:46.830Z,20.30
2023-05-14T17:57:14.607Z,20.40
2023-05-14T17:59:42.360Z,20.60
2023-05-14T18:02:11.378Z,20.50
2023-05-14T18:04:39.067Z,20.40
2023-05-14T18:07:06.832Z,20.30
2023-05-14T18:09:34.642Z,20.30
2023-05-14T18:12:02.342Z,20.20
2023-05-14T18:14:30.042Z,19.90
2023-05-14T18:16:57.865Z,20.30
2023-05-14T18:19:26.999Z,20.30
2023-05-14T18:21:55.395Z,20.00
2023-05-14T18:24:23.210Z,20.00
2023-05-14T18:26:51.028Z,20.20
2023-05-14T18:29:18.738Z,19.90
2023-05-14T18:31:46.498Z,19.80
2023-05-14T18:34:14.376Z,19.30
2023-05-14T18:36:43.778Z,19.80
2023-05-14T18:39:11.503Z,19.30
2023-05-14T18:41:39.222Z,19.70
2023-05-14T18:44:06.965Z,19.60
2023-05-14T18:46:35.011Z,19.30
2023-05-14T18:49:03.079Z,19.30
2023-05-14T18:51:30.799Z,19.50
2023-05-14T18:54:00.149Z,19.30
2023-05-14T18:56:28.092Z,19.20
2023-05-14T18:58:55.925Z,19.20
2023-05-14T19:01:25.420Z,19.20
2023-05-14T19:03:53.624Z,19.00
2023-05-14T19:06:21.491Z,19.10
2023-05-14T19:08:49.186Z,18.70
2023-05-14T19:11:18.650Z,18.90
2023-05-14T19:13:47.821Z,18.70
2023-05-14T19:16:15.610Z,18.40
2023-05-14T19:18:43.610Z,18.60
2023-05-14T19:21:11.454Z,18.30
2023-05-14T19:23:39.375Z,18.50
2023-05-14T19:26:07.562Z,18.30
2023-05-14T19:28:37.877Z,18.40
2023-05-14T19:31:05.804Z,18.50
2023-05-14T19:33:33.756Z,18.20
2023-05-14T19:36:01.815Z,18.10
2023-05-14T19:38:29.620Z,17.90
2023-05-14T19:40:57.755Z,18.10
2023-05-14T19:43:26.013Z,17.80
2023-05-14T19:45:55.179Z,17.70
2023-05-14T19:48:22.930Z,17.40
2023-05-14T19:50:51.986Z,17.30
2023-05-14T19:53:21.256Z,17.30
2023-05-14T19:55:49.159Z,17.50
2023-05-14T19:58:18.053Z,17.20
2023-05-14T20:00:47.157Z,17.20
2023-05-14T20:03:16.346Z,17.10
2023-05-14T20:05:46.035Z,17.50
2023-05-14T20:08:14.261Z,17.20
2023-05-14T20:10:42.455Z,16.90
2023-05-14T20:13:10.205Z,16.30
2023-05-14T20:15:38.080Z,16.70
2023-05-14T20:18:06.237Z,16.60
2023-05-14T20:20:35.840Z,16.50
2023-05-14T20:23:03.707Z,16.20
2023-05-14T20:25:33.221Z,16.10
2023-05-14T20:28:01.482Z,16.10
2023-05-14T20:30:29.531Z,16.40
2023-05-14T20:32:57.601Z,16.00
2023-05-14T20:35:25.861Z,16.30
2023-05-14T20:37:55.531Z,16.00
2023-05-14T20:40:23.564Z,16.10
2023-05-14T20:42:52.078Z,16.10
2023-05-14T20:45:20.010Z,16.10
2023-05-14T20:47:47.848Z,16.30
2023-05-14T20:50:15.622Z,16.40
2023-05-14T20:52:43.573Z,16.40
2023-05-14T20:55:13.203Z,16.20
2023-05-14T20:57:41.142Z,16.10
2023-05-14T21:00:13.197Z,16.40
2023-05-14T21:02:41.260Z,16.20
2023-05-14T21:05:09.509Z,16.20
2023-05-14T21:07:37.498Z,16.10
2023-05-14T21:10:05.910Z,16.20
2023-05-14T21:12:35.083Z,16.20
2023-05-14T21:15:02.852Z,16.10
2023-05-14T21:17:30.685Z,16.00
2023-05-14T21:19:58.491Z,16.30
2023-05-14T21:22:27.425Z,16.40
2023-05-14T21:24:56.007Z,16.30
2023-05-14T21:27:23.940Z,16.00
2023-05-14T21:29:53.167Z,16.50
2023-05-14T21:32:22.327Z,16.30
2023-05-14T21:34:50.103Z,16.20
2023-05-14T21:37:17.893Z,16.00
2023-05-14T21:39:45.826Z,15.90
2023-05-14T21:42:13.849Z,16.00
2023-05-14T21:44:41.591Z,15.80
2023-05-14T21:47:11.398Z,16.00
2023-05-14T21:49:39.289Z,15.90
2023-05-14T21:52:07.511Z,15.80
2023-05-14T21:54:35.290Z,16.10
2023-05-14T21:57:03.304Z,16.10
2023-05-14T21:59:31.016Z,16.00
2023-05-14T22:04:30.830Z,15.70
2023-05-14T22:06:58.550Z,15.30
2023-05-14T22:09:26.386Z,15.60
2023-05-14T22:11:54.102Z,15.90
2023-05-14T22:14:21.811Z,15.70
2023-05-14T22:16:49.801Z,16.00
2023-05-14T22:19:17.689Z,15.60
2023-05-14T22:21:46.864Z,15.70
2023-05-14T22:24:14.649Z,15.80
2023-05-14T22:26:42.478Z,15.90
2023-05-14T22:29:10.240Z,15.70
2023-05-14T22:31:38.133Z,15.80
2023-05-14T22:34:05.903Z,15.20
2023-05-14T22:36:33.632Z,15.70
2023-05-14T22:39:03.434Z,15.60
2023-05-14T22:41:31.264Z,15.50
2023-05-14T22:43:58.992Z,15.50
2023-05-14T22:46:26.873Z,15.20
2023-05-14T22:48:55.398Z,15.40
2023-05-14T22:51:23.115Z,14.80
2023-05-14T22:53:50.859Z,15.40
2023-05-14T22:56:21.648Z,15.20
2023-05-14T22:58:49.385Z,15.30
2023-05-14T23:01:17.192Z,15.20
2023-05-14T23:03:44.960Z,15.20
2023-05-14T23:06:14.300Z,15.00
2023-05-14T23:08:42.051Z,14.50
2023-05-14T23:11:09.815Z,14.90
2023-05-14T23:13:38.979Z,14.90
2023-05-14T23:16:06.907Z,14.70
2023-05-14T23:18:34.907Z,14.60
2023-05-14T23:21:02.765Z,14.70
2023-05-14T23:23:30.478Z,14.60
2023-05-14T23:25:58.233Z,14.70
2023-05-14T23:28:26.037Z,14.80
2023-05-14T23:30:55.065Z,14.90
2023-05-14T23:33:22.774Z,15.00
2023-05-14T23:35:50.633Z,14.60
2023-05-14T23:38:18.540Z,14.80
2023-05-14T23:40:46.342Z,14.90
2023-05-14T23:43:14.914Z,14.90
2023-05-14T23:45:43.044Z,14.80
2023-05-14T23:48:12.130Z,14.70
2023-05-14T23:50:39.849Z,14.90
2023-05-14T23:53:07.781Z,14.80
2023-05-14T23:55:35.779Z,14.90
2023-05-14T23:58:03.845Z,14.50
